sensor_id;sensor_type;location;lat;lon;timestamp;P1;durP1;ratioP1;P2;durP2;ratioP2
39890;SDS011;25564;53.312;9.790;2023-12-04T00:01:43;20.53;;;8.53;;
39890;SDS011;25564;53.312;9.790;2023-12-04T00:04:22;24.43;;;9.30;;
39890;SDS011;25564;53.312;9.790;2023-12-04T00:06:55;22.40;;;10.20;;
39890;SDS011;25564;53.312;9.790;2023-12-04T00:09:27;20.20;;;8.50;;
39890;SDS011;25564;53.312;9.790;2023-12-04T00:11:59;21.73;;;9.07;;
39890;SDS011;25564;53.312;9.790;2023-12-04T00:14:31;20.37;;;9.40;;
39890;SDS011;25564;53.312;9.790;2023-12-04T00:17:02;23.57;;;9.13;;
39890;SDS011;25564;53.312;9.790;2023-12-04T00:19:34;19.17;;;8.67;;
39890;SDS011;25564;53.312;9.790;2023-12-04T00:22:05;19.07;;;8.30;;
39890;SDS011;25564;53.312;9.790;2023-12-04T00:24:39;19.87;;;9.43;;
39890;SDS011;25564;53.312;9.790;2023-12-04T00:27:10;19.90;;;8.03;;
39890;SDS011;25564;53.312;9.790;2023-12-04T00:29:42;18.27;;;7.87;;
39890;SDS011;25564;53.312;9.790;2023-12-04T00:32:13;24.27;;;9.60;;
39890;SDS011;25564;53.312;9.790;2023-12-04T00:34:44;19.40;;;8.93;;
39890;SDS011;25564;53.312;9.790;2023-12-04T00:37:16;24.20;;;9.30;;
39890;SDS011;25564;53.312;9.790;2023-12-04T00:39:47;24.47;;;9.63;;
39890;SDS011;25564;53.312;9.790;2023-12-04T00:42:19;17.77;;;8.70;;
39890;SDS011;25564;53.312;9.790;2023-12-04T00:44:51;18.43;;;8.67;;
39890;SDS011;25564;53.312;9.790;2023-12-04T00:47:22;21.77;;;9.93;;
39890;SDS011;25564;53.312;9.790;2023-12-04T00:49:54;19.13;;;8.50;;
39890;SDS011;25564;53.312;9.790;2023-12-04T00:52:26;20.83;;;8.73;;
39890;SDS011;25564;53.312;9.790;2023-12-04T00:54:58;18.03;;;9.17;;
39890;SDS011;25564;53.312;9.790;2023-12-04T00:57:30;17.67;;;7.90;;
39890;SDS011;25564;53.312;9.790;2023-12-04T01:00:04;21.77;;;10.13;;
39890;SDS011;25564;53.312;9.790;2023-12-04T01:02:36;16.93;;;8.00;;
39890;SDS011;25564;53.312;9.790;2023-12-04T01:05:08;20.17;;;8.03;;
39890;SDS011;25564;53.312;9.790;2023-12-04T01:07:40;20.43;;;8.30;;
39890;SDS011;25564;53.312;9.790;2023-12-04T01:10:11;21.07;;;8.00;;
39890;SDS011;25564;53.312;9.790;2023-12-04T01:12:43;17.27;;;8.30;;
39890;SDS011;25564;53.312;9.790;2023-12-04T01:15:15;16.87;;;7.30;;
39890;SDS011;25564;53.312;9.790;2023-12-04T01:17:47;20.43;;;8.73;;
39890;SDS011;25564;53.312;9.790;2023-12-04T01:20:19;21.37;;;9.07;;
39890;SDS011;25564;53.312;9.790;2023-12-04T01:22:52;18.97;;;8.30;;
39890;SDS011;25564;53.312;9.790;2023-12-04T01:25:24;20.07;;;8.50;;
39890;SDS011;25564;53.312;9.790;2023-12-04T01:27:56;19.10;;;7.57;;
39890;SDS011;25564;53.312;9.790;2023-12-04T01:30:27;22.93;;;9.27;;
39890;SDS011;25564;53.312;9.790;2023-12-04T01:32:59;16.93;;;7.93;;
39890;SDS011;25564;53.312;9.790;2023-12-04T01:35:31;20.23;;;8.13;;
39890;SDS011;25564;53.312;9.790;2023-12-04T01:38:02;20.03;;;8.20;;
39890;SDS011;25564;53.312;9.790;2023-12-04T01:40:34;20.87;;;7.53;;
39890;SDS011;25564;53.312;9.790;2023-12-04T01:43:05;19.30;;;8.30;;
39890;SDS011;25564;53.312;9.790;2023-12-04T01:45:37;19.67;;;7.60;;
39890;SDS011;25564;53.312;9.790;2023-12-04T01:48:09;18.07;;;7.57;;
39890;SDS011;25564;53.312;9.790;2023-12-04T01:50:43;18.50;;;7.43;;
39890;SDS011;25564;53.312;9.790;2023-12-04T01:53:15;22.00;;;8.17;;
39890;SDS011;25564;53.312;9.790;2023-12-04T01:55:48;21.70;;;8.20;;
39890;SDS011;25564;53.312;9.790;2023-12-04T01:58:20;18.87;;;7.63;;
39890;SDS011;25564;53.312;9.790;2023-12-04T02:00:52;14.27;;;7.23;;
39890;SDS011;25564;53.312;9.790;2023-12-04T02:03:23;18.10;;;7.37;;
39890;SDS011;25564;53.312;9.790;2023-12-04T02:05:55;22.33;;;8.33;;
39890;SDS011;25564;53.312;9.790;2023-12-04T02:08:30;21.63;;;7.90;;
39890;SDS011;25564;53.312;9.790;2023-12-04T02:11:04;18.37;;;7.60;;
39890;SDS011;25564;53.312;9.790;2023-12-04T02:13:36;20.47;;;8.53;;
39890;SDS011;25564;53.312;9.790;2023-12-04T02:16:09;18.00;;;8.13;;
39890;SDS011;25564;53.312;9.790;2023-12-04T02:18:41;23.33;;;7.90;;
39890;SDS011;25564;53.312;9.790;2023-12-04T02:21:14;18.60;;;7.30;;
39890;SDS011;25564;53.312;9.790;2023-12-04T02:23:49;24.03;;;9.67;;
39890;SDS011;25564;53.312;9.790;2023-12-04T02:26:22;15.55;;;6.85;;
39890;SDS011;25564;53.312;9.790;2023-12-04T02:29:00;19.87;;;8.23;;
39890;SDS011;25564;53.312;9.790;2023-12-04T02:31:36;20.97;;;9.23;;
39890;SDS011;25564;53.312;9.790;2023-12-04T02:34:11;18.40;;;8.60;;
39890;SDS011;25564;53.312;9.790;2023-12-04T02:36:46;17.20;;;7.93;;
39890;SDS011;25564;53.312;9.790;2023-12-04T02:39:19;19.07;;;8.47;;
39890;SDS011;25564;53.312;9.790;2023-12-04T02:41:51;16.10;;;6.30;;
39890;SDS011;25564;53.312;9.790;2023-12-04T02:44:23;17.63;;;6.77;;
39890;SDS011;25564;53.312;9.790;2023-12-04T02:46:54;20.23;;;7.53;;
39890;SDS011;25564;53.312;9.790;2023-12-04T02:49:26;16.40;;;7.23;;
39890;SDS011;25564;53.312;9.790;2023-12-04T02:51:58;18.50;;;7.47;;
39890;SDS011;25564;53.312;9.790;2023-12-04T02:54:31;18.87;;;8.00;;
39890;SDS011;25564;53.312;9.790;2023-12-04T02:57:02;17.77;;;7.30;;
39890;SDS011;25564;53.312;9.790;2023-12-04T02:59:34;15.70;;;6.80;;
39890;SDS011;25564;53.312;9.790;2023-12-04T03:02:06;16.20;;;7.73;;
39890;SDS011;25564;53.312;9.790;2023-12-04T03:04:38;16.17;;;7.20;;
39890;SDS011;25564;53.312;9.790;2023-12-04T03:07:11;17.13;;;6.50;;
39890;SDS011;25564;53.312;9.790;2023-12-04T03:09:43;20.33;;;8.17;;
39890;SDS011;25564;53.312;9.790;2023-12-04T03:12:20;15.05;;;6.88;;
39890;SDS011;25564;53.312;9.790;2023-12-04T03:14:52;21.10;;;7.87;;
39890;SDS011;25564;53.312;9.790;2023-12-04T03:17:24;12.77;;;6.43;;
39890;SDS011;25564;53.312;9.790;2023-12-04T03:19:56;15.00;;;6.53;;
39890;SDS011;25564;53.312;9.790;2023-12-04T03:22:27;15.93;;;6.93;;
39890;SDS011;25564;53.312;9.790;2023-12-04T03:24:59;16.17;;;5.57;;
39890;SDS011;25564;53.312;9.790;2023-12-04T03:27:30;16.70;;;7.70;;
39890;SDS011;25564;53.312;9.790;2023-12-04T03:30:02;13.07;;;6.17;;
39890;SDS011;25564;53.312;9.790;2023-12-04T03:32:36;16.37;;;6.63;;
39890;SDS011;25564;53.312;9.790;2023-12-04T03:35:08;17.30;;;6.67;;
39890;SDS011;25564;53.312;9.790;2023-12-04T03:37:39;15.27;;;7.60;;
39890;SDS011;25564;53.312;9.790;2023-12-04T03:40:11;17.17;;;7.53;;
39890;SDS011;25564;53.312;9.790;2023-12-04T03:42:43;16.97;;;7.20;;
39890;SDS011;25564;53.312;9.790;2023-12-04T03:45:16;17.43;;;6.10;;
39890;SDS011;25564;53.312;9.790;2023-12-04T03:47:47;13.33;;;6.43;;
39890;SDS011;25564;53.312;9.790;2023-12-04T03:50:19;15.53;;;6.63;;
39890;SDS011;25564;53.312;9.790;2023-12-04T03:52:51;16.67;;;6.50;;
39890;SDS011;25564;53.312;9.790;2023-12-04T03:55:22;14.70;;;6.27;;
39890;SDS011;25564;53.312;9.790;2023-12-04T03:57:56;12.87;;;6.10;;
39890;SDS011;25564;53.312;9.790;2023-12-04T04:00:28;16.17;;;7.20;;
39890;SDS011;25564;53.312;9.790;2023-12-04T04:03:02;16.33;;;7.40;;
39890;SDS011;25564;53.312;9.790;2023-12-04T04:05:35;15.93;;;7.33;;
39890;SDS011;25564;53.312;9.790;2023-12-04T04:08:06;13.33;;;5.93;;
39890;SDS011;25564;53.312;9.790;2023-12-04T04:10:39;15.10;;;6.67;;
39890;SDS011;25564;53.312;9.790;2023-12-04T04:13:10;17.83;;;7.70;;
39890;SDS011;25564;53.312;9.790;2023-12-04T04:15:42;13.80;;;6.30;;
39890;SDS011;25564;53.312;9.790;2023-12-04T04:18:13;17.83;;;6.90;;
39890;SDS011;25564;53.312;9.790;2023-12-04T04:20:46;15.33;;;6.60;;
39890;SDS011;25564;53.312;9.790;2023-12-04T04:23:18;15.77;;;6.77;;
39890;SDS011;25564;53.312;9.790;2023-12-04T04:25:49;15.73;;;7.23;;
39890;SDS011;25564;53.312;9.790;2023-12-04T04:28:21;14.80;;;6.57;;
39890;SDS011;25564;53.312;9.790;2023-12-04T04:30:55;14.17;;;5.83;;
39890;SDS011;25564;53.312;9.790;2023-12-04T04:33:27;18.53;;;7.60;;
39890;SDS011;25564;53.312;9.790;2023-12-04T04:35:59;13.00;;;6.30;;
39890;SDS011;25564;53.312;9.790;2023-12-04T04:38:32;16.37;;;6.13;;
39890;SDS011;25564;53.312;9.790;2023-12-04T04:41:03;16.00;;;7.27;;
39890;SDS011;25564;53.312;9.790;2023-12-04T04:43:35;17.37;;;7.23;;
39890;SDS011;25564;53.312;9.790;2023-12-04T04:46:07;14.50;;;6.87;;
39890;SDS011;25564;53.312;9.790;2023-12-04T04:48:39;15.63;;;7.63;;
39890;SDS011;25564;53.312;9.790;2023-12-04T04:51:12;15.77;;;6.43;;
39890;SDS011;25564;53.312;9.790;2023-12-04T04:53:43;14.53;;;6.67;;
39890;SDS011;25564;53.312;9.790;2023-12-04T04:56:15;14.30;;;5.87;;
39890;SDS011;25564;53.312;9.790;2023-12-04T04:58:48;12.97;;;5.90;;
39890;SDS011;25564;53.312;9.790;2023-12-04T05:01:23;13.30;;;6.32;;
39890;SDS011;25564;53.312;9.790;2023-12-04T05:03:58;15.50;;;6.73;;
39890;SDS011;25564;53.312;9.790;2023-12-04T05:06:31;12.83;;;6.00;;
39890;SDS011;25564;53.312;9.790;2023-12-04T05:09:11;15.00;;;6.53;;
39890;SDS011;25564;53.312;9.790;2023-12-04T05:11:43;18.07;;;6.57;;
39890;SDS011;25564;53.312;9.790;2023-12-04T05:14:14;15.53;;;6.27;;
39890;SDS011;25564;53.312;9.790;2023-12-04T05:16:47;15.67;;;7.87;;
39890;SDS011;25564;53.312;9.790;2023-12-04T05:19:19;16.57;;;6.73;;
39890;SDS011;25564;53.312;9.790;2023-12-04T05:21:50;16.03;;;6.63;;
39890;SDS011;25564;53.312;9.790;2023-12-04T05:24:23;12.10;;;6.03;;
39890;SDS011;25564;53.312;9.790;2023-12-04T05:26:55;14.73;;;6.07;;
39890;SDS011;25564;53.312;9.790;2023-12-04T05:29:27;13.53;;;6.03;;
39890;SDS011;25564;53.312;9.790;2023-12-04T05:31:59;11.07;;;5.63;;
39890;SDS011;25564;53.312;9.790;2023-12-04T05:34:31;13.47;;;5.37;;
39890;SDS011;25564;53.312;9.790;2023-12-04T05:37:02;13.47;;;6.33;;
39890;SDS011;25564;53.312;9.790;2023-12-04T05:39:34;13.83;;;5.83;;
39890;SDS011;25564;53.312;9.790;2023-12-04T05:42:06;14.53;;;6.97;;
39890;SDS011;25564;53.312;9.790;2023-12-04T05:44:37;14.30;;;6.00;;
39890;SDS011;25564;53.312;9.790;2023-12-04T05:47:10;13.87;;;5.80;;
39890;SDS011;25564;53.312;9.790;2023-12-04T05:49:42;11.77;;;5.53;;
39890;SDS011;25564;53.312;9.790;2023-12-04T05:52:14;10.30;;;4.93;;
39890;SDS011;25564;53.312;9.790;2023-12-04T05:54:45;11.20;;;5.43;;
39890;SDS011;25564;53.312;9.790;2023-12-04T05:57:17;17.13;;;5.63;;
39890;SDS011;25564;53.312;9.790;2023-12-04T05:59:49;11.97;;;5.00;;
39890;SDS011;25564;53.312;9.790;2023-12-04T06:02:21;10.23;;;5.17;;
39890;SDS011;25564;53.312;9.790;2023-12-04T06:04:53;12.50;;;5.37;;
39890;SDS011;25564;53.312;9.790;2023-12-04T06:07:24;9.33;;;4.63;;
39890;SDS011;25564;53.312;9.790;2023-12-04T06:09:57;12.23;;;4.90;;
39890;SDS011;25564;53.312;9.790;2023-12-04T06:12:28;11.40;;;4.70;;
39890;SDS011;25564;53.312;9.790;2023-12-04T06:15:00;11.70;;;6.40;;
39890;SDS011;25564;53.312;9.790;2023-12-04T06:17:31;11.67;;;5.07;;
39890;SDS011;25564;53.312;9.790;2023-12-04T06:20:05;10.77;;;5.27;;
39890;SDS011;25564;53.312;9.790;2023-12-04T06:22:38;11.97;;;5.37;;
39890;SDS011;25564;53.312;9.790;2023-12-04T06:25:10;11.23;;;5.13;;
39890;SDS011;25564;53.312;9.790;2023-12-04T06:27:42;10.63;;;5.27;;
39890;SDS011;25564;53.312;9.790;2023-12-04T06:30:14;13.73;;;5.33;;
39890;SDS011;25564;53.312;9.790;2023-12-04T06:32:46;9.73;;;4.90;;
39890;SDS011;25564;53.312;9.790;2023-12-04T06:35:18;10.70;;;4.90;;
39890;SDS011;25564;53.312;9.790;2023-12-04T06:37:52;10.30;;;4.77;;
39890;SDS011;25564;53.312;9.790;2023-12-04T06:40:25;12.00;;;4.83;;
39890;SDS011;25564;53.312;9.790;2023-12-04T06:42:57;13.93;;;4.67;;
39890;SDS011;25564;53.312;9.790;2023-12-04T06:45:29;9.50;;;4.37;;
39890;SDS011;25564;53.312;9.790;2023-12-04T06:48:03;12.10;;;5.10;;
39890;SDS011;25564;53.312;9.790;2023-12-04T06:50:35;11.63;;;4.97;;
39890;SDS011;25564;53.312;9.790;2023-12-04T06:53:07;10.67;;;4.87;;
39890;SDS011;25564;53.312;9.790;2023-12-04T06:55:40;10.27;;;4.77;;
39890;SDS011;25564;53.312;9.790;2023-12-04T06:58:11;7.60;;;4.77;;
39890;SDS011;25564;53.312;9.790;2023-12-04T07:00:43;10.27;;;4.30;;
39890;SDS011;25564;53.312;9.790;2023-12-04T07:03:14;11.73;;;5.30;;
39890;SDS011;25564;53.312;9.790;2023-12-04T07:05:46;10.33;;;5.07;;
39890;SDS011;25564;53.312;9.790;2023-12-04T07:08:18;11.10;;;4.80;;
39890;SDS011;25564;53.312;9.790;2023-12-04T07:10:50;9.47;;;4.43;;
39890;SDS011;25564;53.312;9.790;2023-12-04T07:13:23;12.03;;;4.90;;
39890;SDS011;25564;53.312;9.790;2023-12-04T07:15:55;9.70;;;5.03;;
39890;SDS011;25564;53.312;9.790;2023-12-04T07:18:27;10.63;;;5.20;;
39890;SDS011;25564;53.312;9.790;2023-12-04T07:20:58;9.37;;;4.33;;
39890;SDS011;25564;53.312;9.790;2023-12-04T07:23:30;9.10;;;4.00;;
39890;SDS011;25564;53.312;9.790;2023-12-04T07:26:02;9.97;;;4.33;;
39890;SDS011;25564;53.312;9.790;2023-12-04T07:28:34;10.13;;;4.57;;
39890;SDS011;25564;53.312;9.790;2023-12-04T07:31:06;11.17;;;4.30;;
39890;SDS011;25564;53.312;9.790;2023-12-04T07:33:38;8.70;;;4.23;;
39890;SDS011;25564;53.312;9.790;2023-12-04T07:36:10;7.13;;;3.93;;
39890;SDS011;25564;53.312;9.790;2023-12-04T07:38:42;9.50;;;5.07;;
39890;SDS011;25564;53.312;9.790;2023-12-04T07:41:13;16.33;;;6.10;;
39890;SDS011;25564;53.312;9.790;2023-12-04T07:43:45;16.27;;;7.27;;
39890;SDS011;25564;53.312;9.790;2023-12-04T07:46:17;15.33;;;6.70;;
39890;SDS011;25564;53.312;9.790;2023-12-04T07:48:48;11.77;;;5.60;;
39890;SDS011;25564;53.312;9.790;2023-12-04T07:51:21;10.87;;;4.67;;
39890;SDS011;25564;53.312;9.790;2023-12-04T07:53:52;8.13;;;4.90;;
39890;SDS011;25564;53.312;9.790;2023-12-04T07:56:24;8.40;;;4.13;;
39890;SDS011;25564;53.312;9.790;2023-12-04T07:58:56;10.90;;;5.03;;
39890;SDS011;25564;53.312;9.790;2023-12-04T08:01:28;11.00;;;5.13;;
39890;SDS011;25564;53.312;9.790;2023-12-04T08:03:59;11.83;;;4.37;;
39890;SDS011;25564;53.312;9.790;2023-12-04T08:06:31;10.83;;;4.50;;
39890;SDS011;25564;53.312;9.790;2023-12-04T08:09:02;11.00;;;4.77;;
39890;SDS011;25564;53.312;9.790;2023-12-04T08:11:34;9.40;;;4.50;;
39890;SDS011;25564;53.312;9.790;2023-12-04T08:14:05;8.83;;;4.67;;
39890;SDS011;25564;53.312;9.790;2023-12-04T08:16:37;9.40;;;4.87;;
39890;SDS011;25564;53.312;9.790;2023-12-04T08:19:10;11.93;;;5.07;;
39890;SDS011;25564;53.312;9.790;2023-12-04T08:21:41;8.20;;;4.50;;
39890;SDS011;25564;53.312;9.790;2023-12-04T08:24:13;11.03;;;4.90;;
39890;SDS011;25564;53.312;9.790;2023-12-04T08:26:46;10.17;;;4.83;;
39890;SDS011;25564;53.312;9.790;2023-12-04T08:29:17;11.93;;;5.50;;
39890;SDS011;25564;53.312;9.790;2023-12-04T08:31:49;13.23;;;5.80;;
39890;SDS011;25564;53.312;9.790;2023-12-04T08:34:21;11.90;;;5.43;;
39890;SDS011;25564;53.312;9.790;2023-12-04T08:36:53;13.57;;;5.50;;
39890;SDS011;25564;53.312;9.790;2023-12-04T08:39:24;10.90;;;4.90;;
39890;SDS011;25564;53.312;9.790;2023-12-04T08:41:56;12.17;;;5.20;;
39890;SDS011;25564;53.312;9.790;2023-12-04T08:44:35;11.40;;;5.73;;
39890;SDS011;25564;53.312;9.790;2023-12-04T08:47:07;12.60;;;5.30;;
39890;SDS011;25564;53.312;9.790;2023-12-04T08:49:39;11.57;;;4.80;;
39890;SDS011;25564;53.312;9.790;2023-12-04T08:52:19;10.53;;;5.30;;
39890;SDS011;25564;53.312;9.790;2023-12-04T08:54:53;11.97;;;4.77;;
39890;SDS011;25564;53.312;9.790;2023-12-04T08:57:25;10.40;;;5.13;;
39890;SDS011;25564;53.312;9.790;2023-12-04T08:59:57;12.77;;;5.47;;
39890;SDS011;25564;53.312;9.790;2023-12-04T09:02:30;12.07;;;5.80;;
39890;SDS011;25564;53.312;9.790;2023-12-04T09:05:03;12.23;;;5.40;;
39890;SDS011;25564;53.312;9.790;2023-12-04T09:07:35;14.33;;;6.13;;
39890;SDS011;25564;53.312;9.790;2023-12-04T09:10:11;10.60;;;5.38;;
39890;SDS011;25564;53.312;9.790;2023-12-04T09:13:00;14.33;;;5.93;;
39890;SDS011;25564;53.312;9.790;2023-12-04T09:15:32;12.00;;;5.23;;
39890;SDS011;25564;53.312;9.790;2023-12-04T09:18:04;12.20;;;5.67;;
39890;SDS011;25564;53.312;9.790;2023-12-04T09:20:35;11.30;;;5.60;;
39890;SDS011;25564;53.312;9.790;2023-12-04T09:23:07;11.37;;;5.33;;
39890;SDS011;25564;53.312;9.790;2023-12-04T09:25:39;12.27;;;6.00;;
39890;SDS011;25564;53.312;9.790;2023-12-04T09:28:11;12.60;;;4.90;;
39890;SDS011;25564;53.312;9.790;2023-12-04T09:30:42;9.73;;;4.93;;
39890;SDS011;25564;53.312;9.790;2023-12-04T09:33:14;10.47;;;5.07;;
39890;SDS011;25564;53.312;9.790;2023-12-04T09:35:45;11.80;;;5.73;;
39890;SDS011;25564;53.312;9.790;2023-12-04T09:38:17;11.67;;;5.17;;
39890;SDS011;25564;53.312;9.790;2023-12-04T09:40:49;13.27;;;5.83;;
39890;SDS011;25564;53.312;9.790;2023-12-04T09:43:23;14.57;;;6.43;;
39890;SDS011;25564;53.312;9.790;2023-12-04T09:45:58;12.40;;;5.57;;
39890;SDS011;25564;53.312;9.790;2023-12-04T09:48:30;10.40;;;4.80;;
39890;SDS011;25564;53.312;9.790;2023-12-04T09:51:03;12.63;;;5.13;;
39890;SDS011;25564;53.312;9.790;2023-12-04T09:53:35;12.20;;;5.73;;
39890;SDS011;25564;53.312;9.790;2023-12-04T09:56:07;10.33;;;5.50;;
39890;SDS011;25564;53.312;9.790;2023-12-04T09:58:40;10.53;;;5.33;;
39890;SDS011;25564;53.312;9.790;2023-12-04T10:01:12;14.17;;;5.90;;
39890;SDS011;25564;53.312;9.790;2023-12-04T10:03:45;12.67;;;5.97;;
39890;SDS011;25564;53.312;9.790;2023-12-04T10:06:18;11.43;;;5.33;;
39890;SDS011;25564;53.312;9.790;2023-12-04T10:08:50;12.40;;;6.00;;
39890;SDS011;25564;53.312;9.790;2023-12-04T10:11:23;11.10;;;5.50;;
39890;SDS011;25564;53.312;9.790;2023-12-04T10:13:56;12.20;;;5.60;;
39890;SDS011;25564;53.312;9.790;2023-12-04T10:16:34;14.87;;;6.67;;
39890;SDS011;25564;53.312;9.790;2023-12-04T10:21:49;12.03;;;5.30;;
39890;SDS011;25564;53.312;9.790;2023-12-04T10:24:28;9.60;;;4.73;;
39890;SDS011;25564;53.312;9.790;2023-12-04T10:27:02;11.27;;;5.07;;
39890;SDS011;25564;53.312;9.790;2023-12-04T10:29:41;9.97;;;4.93;;
39890;SDS011;25564;53.312;9.790;2023-12-04T10:32:20;9.13;;;4.60;;
39890;SDS011;25564;53.312;9.790;2023-12-04T10:34:54;12.37;;;5.07;;
39890;SDS011;25564;53.312;9.790;2023-12-04T10:37:28;9.40;;;4.77;;
39890;SDS011;25564;53.312;9.790;2023-12-04T10:40:00;11.43;;;5.13;;
39890;SDS011;25564;53.312;9.790;2023-12-04T10:42:32;12.90;;;5.47;;
39890;SDS011;25564;53.312;9.790;2023-12-04T10:45:04;12.60;;;5.23;;
39890;SDS011;25564;53.312;9.790;2023-12-04T10:47:37;11.80;;;5.83;;
39890;SDS011;25564;53.312;9.790;2023-12-04T10:50:10;10.63;;;5.03;;
39890;SDS011;25564;53.312;9.790;2023-12-04T10:52:43;11.43;;;5.33;;
39890;SDS011;25564;53.312;9.790;2023-12-04T10:55:16;9.50;;;4.67;;
39890;SDS011;25564;53.312;9.790;2023-12-04T10:57:49;10.13;;;4.70;;
39890;SDS011;25564;53.312;9.790;2023-12-04T11:00:24;12.13;;;5.50;;
39890;SDS011;25564;53.312;9.790;2023-12-04T11:02:57;11.87;;;5.60;;
39890;SDS011;25564;53.312;9.790;2023-12-04T11:05:38;10.17;;;4.73;;
39890;SDS011;25564;53.312;9.790;2023-12-04T11:08:11;13.83;;;5.57;;
39890;SDS011;25564;53.312;9.790;2023-12-04T11:13:40;7.83;;;4.50;;
39890;SDS011;25564;53.312;9.790;2023-12-04T11:16:18;9.40;;;4.90;;
39890;SDS011;25564;53.312;9.790;2023-12-04T11:18:55;9.50;;;5.00;;
39890;SDS011;25564;53.312;9.790;2023-12-04T11:21:35;8.03;;;4.13;;
39890;SDS011;25564;53.312;9.790;2023-12-04T11:24:08;10.23;;;4.87;;
39890;SDS011;25564;53.312;9.790;2023-12-04T11:26:40;10.93;;;5.30;;
39890;SDS011;25564;53.312;9.790;2023-12-04T11:29:12;9.67;;;4.37;;
39890;SDS011;25564;53.312;9.790;2023-12-04T11:31:44;9.43;;;4.63;;
39890;SDS011;25564;53.312;9.790;2023-12-04T11:34:17;11.67;;;5.10;;
39890;SDS011;25564;53.312;9.790;2023-12-04T11:36:49;10.00;;;4.50;;
39890;SDS011;25564;53.312;9.790;2023-12-04T11:39:21;10.17;;;5.20;;
39890;SDS011;25564;53.312;9.790;2023-12-04T11:41:53;13.40;;;4.47;;
39890;SDS011;25564;53.312;9.790;2023-12-04T11:44:25;8.17;;;4.43;;
39890;SDS011;25564;53.312;9.790;2023-12-04T11:47:05;8.47;;;4.93;;
39890;SDS011;25564;53.312;9.790;2023-12-04T11:49:37;10.33;;;4.97;;
39890;SDS011;25564;53.312;9.790;2023-12-04T11:52:09;12.03;;;4.90;;
39890;SDS011;25564;53.312;9.790;2023-12-04T11:57:31;10.33;;;5.00;;
39890;SDS011;25564;53.312;9.790;2023-12-04T12:00:08;11.67;;;5.40;;
39890;SDS011;25564;53.312;9.790;2023-12-04T12:02:46;10.00;;;4.23;;
39890;SDS011;25564;53.312;9.790;2023-12-04T12:05:53;9.97;;;5.27;;
39890;SDS011;25564;53.312;9.790;2023-12-04T12:08:25;12.00;;;5.17;;
39890;SDS011;25564;53.312;9.790;2023-12-04T12:11:00;9.77;;;5.37;;
39890;SDS011;25564;53.312;9.790;2023-12-04T12:13:31;8.93;;;4.90;;
39890;SDS011;25564;53.312;9.790;2023-12-04T12:16:03;9.70;;;4.87;;
39890;SDS011;25564;53.312;9.790;2023-12-04T12:18:35;10.93;;;4.70;;
39890;SDS011;25564;53.312;9.790;2023-12-04T12:21:07;10.60;;;5.27;;
39890;SDS011;25564;53.312;9.790;2023-12-04T12:23:40;9.50;;;4.60;;
39890;SDS011;25564;53.312;9.790;2023-12-04T12:26:12;10.13;;;4.80;;
39890;SDS011;25564;53.312;9.790;2023-12-04T12:28:43;9.03;;;4.40;;
39890;SDS011;25564;53.312;9.790;2023-12-04T12:31:16;10.93;;;5.03;;
39890;SDS011;25564;53.312;9.790;2023-12-04T12:33:49;9.17;;;5.07;;
39890;SDS011;25564;53.312;9.790;2023-12-04T12:36:23;8.80;;;4.97;;
39890;SDS011;25564;53.312;9.790;2023-12-04T12:38:55;10.20;;;5.47;;
39890;SDS011;25564;53.312;9.790;2023-12-04T12:41:27;11.60;;;5.73;;
39890;SDS011;25564;53.312;9.790;2023-12-04T12:44:00;11.80;;;5.47;;
39890;SDS011;25564;53.312;9.790;2023-12-04T12:46:33;9.23;;;4.83;;
39890;SDS011;25564;53.312;9.790;2023-12-04T12:49:05;8.50;;;4.30;;
39890;SDS011;25564;53.312;9.790;2023-12-04T12:51:37;8.90;;;4.27;;
39890;SDS011;25564;53.312;9.790;2023-12-04T12:54:08;9.87;;;4.13;;
39890;SDS011;25564;53.312;9.790;2023-12-04T12:56:41;10.10;;;4.33;;
39890;SDS011;25564;53.312;9.790;2023-12-04T12:59:12;9.97;;;5.30;;
39890;SDS011;25564;53.312;9.790;2023-12-04T13:01:45;7.90;;;4.20;;
39890;SDS011;25564;53.312;9.790;2023-12-04T13:04:16;11.03;;;4.80;;
39890;SDS011;25564;53.312;9.790;2023-12-04T13:06:48;6.93;;;4.03;;
39890;SDS011;25564;53.312;9.790;2023-12-04T13:09:21;9.07;;;5.03;;
39890;SDS011;25564;53.312;9.790;2023-12-04T13:11:53;8.20;;;4.50;;
39890;SDS011;25564;53.312;9.790;2023-12-04T13:14:25;10.07;;;4.97;;
39890;SDS011;25564;53.312;9.790;2023-12-04T13:16:57;8.87;;;4.10;;
39890;SDS011;25564;53.312;9.790;2023-12-04T13:19:28;12.00;;;5.60;;
39890;SDS011;25564;53.312;9.790;2023-12-04T13:22:03;8.93;;;4.27;;
39890;SDS011;25564;53.312;9.790;2023-12-04T13:24:36;6.13;;;3.83;;
39890;SDS011;25564;53.312;9.790;2023-12-04T13:27:07;7.70;;;3.90;;
39890;SDS011;25564;53.312;9.790;2023-12-04T13:29:39;8.73;;;4.53;;
39890;SDS011;25564;53.312;9.790;2023-12-04T13:32:11;8.67;;;4.63;;
39890;SDS011;25564;53.312;9.790;2023-12-04T13:34:42;7.80;;;4.10;;
39890;SDS011;25564;53.312;9.790;2023-12-04T13:37:14;11.43;;;4.23;;
39890;SDS011;25564;53.312;9.790;2023-12-04T13:39:47;8.10;;;4.20;;
39890;SDS011;25564;53.312;9.790;2023-12-04T13:42:19;11.17;;;4.70;;
39890;SDS011;25564;53.312;9.790;2023-12-04T13:45:09;8.80;;;4.30;;
39890;SDS011;25564;53.312;9.790;2023-12-04T13:47:41;9.37;;;4.10;;
39890;SDS011;25564;53.312;9.790;2023-12-04T13:50:13;8.97;;;4.37;;
39890;SDS011;25564;53.312;9.790;2023-12-04T13:52:45;8.57;;;4.17;;
39890;SDS011;25564;53.312;9.790;2023-12-04T13:55:26;7.77;;;4.20;;
39890;SDS011;25564;53.312;9.790;2023-12-04T13:58:14;6.87;;;4.10;;
39890;SDS011;25564;53.312;9.790;2023-12-04T14:01:04;8.50;;;3.93;;
39890;SDS011;25564;53.312;9.790;2023-12-04T14:03:45;8.63;;;3.90;;
39890;SDS011;25564;53.312;9.790;2023-12-04T14:06:17;10.30;;;4.70;;
39890;SDS011;25564;53.312;9.790;2023-12-04T14:08:49;8.93;;;4.73;;
39890;SDS011;25564;53.312;9.790;2023-12-04T14:11:20;9.47;;;4.67;;
39890;SDS011;25564;53.312;9.790;2023-12-04T14:13:53;11.53;;;5.40;;
39890;SDS011;25564;53.312;9.790;2023-12-04T14:16:24;11.03;;;4.93;;
39890;SDS011;25564;53.312;9.790;2023-12-04T14:18:57;11.23;;;4.77;;
39890;SDS011;25564;53.312;9.790;2023-12-04T14:21:30;7.57;;;4.27;;
39890;SDS011;25564;53.312;9.790;2023-12-04T14:24:02;12.13;;;5.10;;
39890;SDS011;25564;53.312;9.790;2023-12-04T14:26:33;10.60;;;5.30;;
39890;SDS011;25564;53.312;9.790;2023-12-04T14:29:05;9.17;;;4.13;;
39890;SDS011;25564;53.312;9.790;2023-12-04T14:31:39;9.20;;;4.80;;
39890;SDS011;25564;53.312;9.790;2023-12-04T14:34:11;13.33;;;5.60;;
39890;SDS011;25564;53.312;9.790;2023-12-04T14:36:44;10.90;;;5.03;;
39890;SDS011;25564;53.312;9.790;2023-12-04T14:39:16;9.30;;;4.67;;
39890;SDS011;25564;53.312;9.790;2023-12-04T14:41:50;10.27;;;4.93;;
39890;SDS011;25564;53.312;9.790;2023-12-04T14:44:22;11.03;;;5.00;;
39890;SDS011;25564;53.312;9.790;2023-12-04T14:46:53;11.37;;;4.53;;
39890;SDS011;25564;53.312;9.790;2023-12-04T14:49:25;12.47;;;5.80;;
39890;SDS011;25564;53.312;9.790;2023-12-04T14:51:57;11.33;;;6.03;;
39890;SDS011;25564;53.312;9.790;2023-12-04T14:54:28;10.50;;;5.10;;
39890;SDS011;25564;53.312;9.790;2023-12-04T14:57:23;13.10;;;5.90;;
39890;SDS011;25564;53.312;9.790;2023-12-04T15:00:13;11.33;;;5.40;;
39890;SDS011;25564;53.312;9.790;2023-12-04T15:03:20;12.15;;;5.38;;
39890;SDS011;25564;53.312;9.790;2023-12-04T15:06:23;19.67;;;6.80;;
39890;SDS011;25564;53.312;9.790;2023-12-04T15:09:06;13.17;;;6.93;;
39890;SDS011;25564;53.312;9.790;2023-12-04T15:11:43;15.90;;;7.30;;
39890;SDS011;25564;53.312;9.790;2023-12-04T15:14:34;11.37;;;5.83;;
39890;SDS011;25564;53.312;9.790;2023-12-04T15:17:21;15.30;;;6.75;;
39890;SDS011;25564;53.312;9.790;2023-12-04T15:20:09;17.57;;;6.27;;
39890;SDS011;25564;53.312;9.790;2023-12-04T15:22:41;14.20;;;7.63;;